Terminal Aerodrome Forecast
Issued by NWS Mt. Holly, NJ

Home | Current Version | Previous Version | Text Only | Print | Product List | Glossary On
Versions: 1 2 3 4 5 6 7 8 9 10 11 12 13 14 15
000
FTUS41 KPHI 050549
TAFACY
TAF
KACY 050549Z 0506/0606 20008KT P6SM FEW250 WS020/23050KT
     FM050900 23007KT P6SM FEW250
     FM051200 23010KT P6SM SCT050
     FM052000 18010KT P6SM BKN100
      TEMPO 0522/0524 -SHRA
     FM060000 23006KT P6SM -SHRA BKN050=

USA.gov is the U.S. government's official web portal to all federal, state and local government web resources and services.